createdAt,value
2023-04-17T00:02:25.867Z,93.02
2023-04-17T00:04:54.242Z,92.39
2023-04-17T00:07:22.924Z,93.58
2023-04-17T00:09:49.654Z,96.56
2023-04-17T00:12:16.156Z,96.74
2023-04-17T00:14:42.574Z,97.15
2023-04-17T00:17:08.955Z,99.54
2023-04-17T00:19:35.391Z,99.77
2023-04-17T00:22:01.770Z,98.44
2023-04-17T00:24:28.201Z,98.51
2023-04-17T00:26:54.588Z,97.77
2023-04-17T00:29:20.954Z,97.28
2023-04-17T00:31:47.408Z,96.59
2023-04-17T00:34:14.181Z,95.49
2023-04-17T00:36:40.589Z,95.25
2023-04-17T00:39:07.486Z,96.13
2023-04-17T00:41:33.843Z,97.44
2023-04-17T00:44:00.336Z,99.21
2023-04-17T00:46:27.118Z,100.00
2023-04-17T00:48:54.150Z,100.00
2023-04-17T00:51:20.980Z,100.00
2023-04-17T00:53:47.764Z,100.00
2023-04-17T00:56:14.559Z,99.87
2023-04-17T00:58:41.304Z,98.83
2023-04-17T01:01:08.346Z,97.61
2023-04-17T01:03:35.282Z,96.54
2023-04-17T01:06:02.876Z,95.98
2023-04-17T01:08:39.351Z,95.25
2023-04-17T01:11:05.838Z,96.10
2023-04-17T01:13:32.518Z,95.92
2023-04-17T01:15:58.899Z,97.73
2023-04-17T01:18:25.664Z,97.61
2023-04-17T01:20:52.019Z,96.89
2023-04-17T01:23:18.778Z,96.17
2023-04-17T01:25:46.311Z,95.81
2023-04-17T01:28:12.930Z,95.59
2023-04-17T01:30:39.309Z,96.82
2023-04-17T01:33:06.040Z,97.03
2023-04-17T01:35:32.428Z,97.79
2023-04-17T01:37:58.855Z,96.75
2023-04-17T01:40:25.316Z,97.27
2023-04-17T01:42:51.694Z,96.27
2023-04-17T01:45:18.177Z,96.76
2023-04-17T01:47:44.952Z,96.22
2023-04-17T01:50:12.028Z,96.50
2023-04-17T01:52:39.773Z,96.64
2023-04-17T01:55:06.841Z,96.37
2023-04-17T01:57:33.300Z,96.21
2023-04-17T01:59:59.693Z,95.64
2023-04-17T02:02:26.137Z,95.72
2023-04-17T02:04:52.630Z,95.46
2023-04-17T02:07:19.056Z,95.47
2023-04-17T02:09:45.897Z,95.64
2023-04-17T02:12:12.299Z,95.21
2023-04-17T02:14:39.362Z,94.53
2023-04-17T02:17:05.876Z,95.11
2023-04-17T02:19:32.439Z,94.84
2023-04-17T02:21:58.847Z,94.42
2023-04-17T02:24:25.774Z,93.97
2023-04-17T02:26:52.161Z,93.38
2023-04-17T02:29:19.549Z,93.03
2023-04-17T02:31:46.380Z,93.06
2023-04-17T02:34:13.221Z,92.46
2023-04-17T02:36:39.596Z,92.34
2023-04-17T02:39:05.973Z,92.55
2023-04-17T02:41:32.423Z,92.48
2023-04-17T02:44:00.976Z,92.91
2023-04-17T02:46:27.468Z,93.77
2023-04-17T02:48:53.919Z,94.07
2023-04-17T02:51:20.277Z,94.61
2023-04-17T02:53:47.111Z,94.67
2023-04-17T02:56:13.494Z,95.24
2023-04-17T02:58:39.927Z,94.94
2023-04-17T03:01:06.409Z,94.53
2023-04-17T03:03:35.626Z,94.21
2023-04-17T03:06:02.459Z,95.39
2023-04-17T03:08:31.898Z,95.35
2023-04-17T03:10:59.910Z,95.76
2023-04-17T03:13:26.287Z,96.20
2023-04-17T03:15:52.978Z,96.58
2023-04-17T03:18:19.332Z,95.94
2023-04-17T03:20:46.253Z,96.77
2023-04-17T03:23:12.633Z,96.92
2023-04-17T03:25:39.040Z,97.27
2023-04-17T03:28:05.446Z,96.82
2023-04-17T03:30:31.831Z,97.50
2023-04-17T03:32:58.250Z,96.95
2023-04-17T03:35:24.964Z,96.27
2023-04-17T03:37:51.445Z,95.88
2023-04-17T03:40:17.944Z,95.87
2023-04-17T03:42:44.369Z,95.50
2023-04-17T03:45:10.998Z,96.03
2023-04-17T03:47:37.388Z,96.46
2023-04-17T03:50:04.044Z,96.84
2023-04-17T03:52:30.446Z,96.05
2023-04-17T03:54:57.167Z,97.12
2023-04-17T03:57:23.543Z,97.01
2023-04-17T03:59:49.914Z,95.91
2023-04-17T04:02:16.425Z,95.53
2023-04-17T04:04:43.281Z,96.78
2023-04-17T04:07:09.864Z,98.39
2023-04-17T04:09:36.231Z,99.51
2023-04-17T04:12:02.938Z,99.21
2023-04-17T04:14:30.025Z,99.66
2023-04-17T04:16:56.689Z,100.00
2023-04-17T04:19:23.113Z,100.00
2023-04-17T04:21:49.658Z,100.00
2023-04-17T04:24:16.734Z,100.00
2023-04-17T04:26:43.220Z,100.00
2023-04-17T04:29:11.699Z,100.00
2023-04-17T04:31:38.579Z,100.00
2023-04-17T04:34:06.035Z,100.00
2023-04-17T04:36:36.043Z,100.00
2023-04-17T04:39:05.634Z,100.00
2023-04-17T04:41:33.931Z,100.00
2023-04-17T04:44:01.177Z,100.00
2023-04-17T04:46:28.277Z,100.00
2023-04-17T04:48:54.667Z,100.00
2023-04-17T04:51:21.074Z,100.00
2023-04-17T04:53:47.489Z,100.00
2023-04-17T04:56:14.192Z,100.00
2023-04-17T04:58:40.797Z,100.00
2023-04-17T05:01:07.724Z,100.00
2023-04-17T05:03:34.212Z,100.00
2023-04-17T05:06:00.802Z,100.00
2023-04-17T05:08:27.177Z,100.00
2023-04-17T05:10:53.564Z,100.00
2023-04-17T05:13:19.922Z,100.00
2023-04-17T05:15:46.326Z,100.00
2023-04-17T05:18:12.745Z,100.00
2023-04-17T05:20:39.557Z,100.00
2023-04-17T05:23:06.061Z,100.00
2023-04-17T05:25:32.834Z,100.00
2023-04-17T05:27:59.246Z,100.00
2023-04-17T05:30:25.699Z,100.00
2023-04-17T05:32:53.871Z,100.00
2023-04-17T05:35:21.080Z,100.00
2023-04-17T05:37:47.526Z,100.00
2023-04-17T05:40:14.086Z,100.00
2023-04-17T05:42:40.806Z,100.00
2023-04-17T05:45:07.704Z,100.00
2023-04-17T05:47:34.192Z,100.00
2023-04-17T05:50:00.738Z,100.00
2023-04-17T05:52:30.380Z,100.00
2023-04-17T05:54:56.805Z,100.00
2023-04-17T05:57:23.334Z,100.00
2023-04-17T05:59:49.736Z,100.00
2023-04-17T06:02:16.849Z,100.00
2023-04-17T06:04:44.496Z,100.00
2023-04-17T06:07:11.738Z,100.00
2023-04-17T06:09:38.790Z,100.00
2023-04-17T06:12:05.470Z,100.00
2023-04-17T06:14:32.046Z,100.00
2023-04-17T06:16:58.576Z,100.00
2023-04-17T06:19:24.997Z,100.00
2023-04-17T06:21:51.458Z,100.00
2023-04-17T06:24:18.984Z,100.00
2023-04-17T06:26:45.429Z,100.00
2023-04-17T06:29:12.615Z,100.00
2023-04-17T06:31:39.354Z,100.00
2023-04-17T06:34:05.967Z,100.00
2023-04-17T06:36:33.272Z,100.00
2023-04-17T06:38:59.632Z,100.00
2023-04-17T06:41:26.022Z,100.00
2023-04-17T06:43:52.388Z,100.00
2023-04-17T06:46:18.871Z,100.00
2023-04-17T06:48:45.312Z,100.00
2023-04-17T06:51:11.703Z,100.00
2023-04-17T06:53:38.113Z,100.00
2023-04-17T06:56:04.939Z,100.00
2023-04-17T06:58:31.509Z,100.00
2023-04-17T07:00:57.869Z,100.00
2023-04-17T07:03:24.471Z,95.49
2023-04-17T07:05:51.049Z,93.11
2023-04-17T07:08:19.378Z,93.42
2023-04-17T07:10:45.802Z,94.39
2023-04-17T07:13:12.374Z,91.86
2023-04-17T07:15:38.794Z,91.06
2023-04-17T07:18:05.384Z,92.50
2023-04-17T07:20:31.771Z,94.28
2023-04-17T07:22:58.488Z,95.54
2023-04-17T07:25:25.037Z,97.55
2023-04-17T07:27:51.410Z,96.92
2023-04-17T07:30:17.765Z,95.23
2023-04-17T07:32:44.194Z,86.13
2023-04-17T07:35:10.631Z,83.84
2023-04-17T07:37:37.191Z,80.10
2023-04-17T07:40:05.190Z,80.06
2023-04-17T07:42:31.943Z,81.34
2023-04-17T07:44:58.331Z,78.95
2023-04-17T07:47:25.088Z,80.17
2023-04-17T07:49:51.551Z,81.93
2023-04-17T07:52:18.104Z,84.20
2023-04-17T07:54:44.888Z,85.94
2023-04-17T07:57:11.329Z,86.62
2023-04-17T07:59:37.709Z,87.30
2023-04-17T08:02:04.218Z,87.50
2023-04-17T08:04:30.879Z,85.91
2023-04-17T08:06:57.521Z,86.15
2023-04-17T08:09:24.137Z,86.09
2023-04-17T08:11:57.189Z,86.44
2023-04-17T08:14:25.024Z,85.70
2023-04-17T08:16:51.676Z,86.20
2023-04-17T08:19:18.490Z,85.14
2023-04-17T08:21:47.450Z,83.28
2023-04-17T08:24:14.226Z,81.70
2023-04-17T08:26:40.694Z,79.73
2023-04-17T08:29:07.398Z,79.54
2023-04-17T08:31:36.783Z,79.20
2023-04-17T08:34:13.773Z,78.22
2023-04-17T08:36:41.215Z,78.46
2023-04-17T08:39:09.859Z,78.24
2023-04-17T08:41:48.967Z,78.32
2023-04-17T08:44:20.560Z,77.68
2023-04-17T08:46:47.574Z,77.79
2023-04-17T08:49:14.818Z,77.71
2023-04-17T08:51:42.136Z,77.54
2023-04-17T08:54:08.597Z,77.09
2023-04-17T08:56:35.225Z,74.95
2023-04-17T08:59:01.665Z,74.92
2023-04-17T09:01:29.778Z,73.36
2023-04-17T09:03:57.366Z,73.93
2023-04-17T09:06:24.036Z,73.68
2023-04-17T09:08:59.475Z,72.37
2023-04-17T09:11:26.653Z,73.33
2023-04-17T09:13:54.299Z,73.93
2023-04-17T09:16:21.090Z,72.73
2023-04-17T09:18:48.690Z,72.19
2023-04-17T09:21:18.635Z,71.97
2023-04-17T09:23:54.320Z,71.42
2023-04-17T09:26:25.715Z,71.07
2023-04-17T09:29:11.086Z,71.28
2023-04-17T09:31:40.423Z,71.92
2023-04-17T09:34:08.884Z,69.81
2023-04-17T09:36:38.139Z,70.70
2023-04-17T09:39:16.790Z,69.73
2023-04-17T09:41:43.360Z,68.54
2023-04-17T09:44:10.082Z,67.77
2023-04-17T09:46:42.938Z,68.98
2023-04-17T09:49:15.580Z,68.53
2023-04-17T09:51:42.335Z,68.06
2023-04-17T09:54:11.349Z,68.38
2023-04-17T09:56:38.940Z,68.26
2023-04-17T09:59:06.790Z,67.11
2023-04-17T10:01:35.343Z,66.85
2023-04-17T10:04:03.520Z,65.73
2023-04-17T10:06:34.604Z,69.65
2023-04-17T10:09:01.295Z,71.07
2023-04-17T10:11:32.016Z,72.04
2023-04-17T10:14:11.169Z,71.81
2023-04-17T10:16:39.673Z,71.23
2023-04-17T10:19:23.978Z,71.75
2023-04-17T10:22:15.223Z,71.74
2023-04-17T10:24:52.340Z,72.81
2023-04-17T10:27:24.779Z,74.98
2023-04-17T10:29:57.424Z,75.19
2023-04-17T10:32:31.434Z,75.85
2023-04-17T10:34:59.509Z,78.41
2023-04-17T10:37:50.792Z,74.21
2023-04-17T10:40:29.859Z,75.37
2023-04-17T10:43:19.719Z,76.93
2023-04-17T10:46:04.026Z,80.49
2023-04-17T10:48:40.786Z,80.47
2023-04-17T10:51:30.269Z,80.13
2023-04-17T10:53:58.501Z,82.21
2023-04-17T10:56:26.376Z,78.90
2023-04-17T10:59:00.779Z,75.26
2023-04-17T11:01:38.149Z,77.07
2023-04-17T11:04:05.043Z,72.93
2023-04-17T11:06:33.051Z,72.50
2023-04-17T11:09:00.387Z,74.07
2023-04-17T11:11:40.512Z,76.63
2023-04-17T11:14:14.707Z,78.03
2023-04-17T11:16:42.793Z,72.49
2023-04-17T11:19:11.192Z,75.64
2023-04-17T11:21:45.286Z,72.36
2023-04-17T11:24:12.435Z,73.71
2023-04-17T11:26:46.574Z,75.25
